createdAt,value
2018-02-19T00:00:18.705Z,-1.09
2018-02-19T00:01:21.632Z,-1.08
2018-02-19T00:02:24.737Z,-0.97
2018-02-19T00:03:27.539Z,-0.99
2018-02-19T00:04:30.343Z,-0.94
2018-02-19T00:05:33.171Z,-0.94
2018-02-19T00:06:35.999Z,-0.92
2018-02-19T00:07:38.822Z,-0.98
2018-02-19T00:08:41.951Z,-1.09
2018-02-19T00:09:45.450Z,-1.14
2018-02-19T00:10:48.308Z,-1.28
2018-02-19T00:11:51.183Z,-1.29
2018-02-19T00:12:54.055Z,-1.33
2018-02-19T00:13:57.012Z,-1.20
2018-02-19T00:15:00.279Z,-1.06
2018-02-19T00:16:03.227Z,-1.02
2018-02-19T00:17:06.316Z,-0.98
2018-02-19T00:18:09.271Z,-0.90
2018-02-19T00:19:12.125Z,-0.97
2018-02-19T00:20:14.989Z,-1.10
2018-02-19T00:21:18.117Z,-1.09
2018-02-19T00:22:20.970Z,-1.14
2018-02-19T00:23:23.934Z,-1.17
2018-02-19T00:24:27.349Z,-1.31
2018-02-19T00:25:30.342Z,-1.30
2018-02-19T00:26:33.309Z,-1.21
2018-02-19T00:27:36.610Z,-1.15
2018-02-19T00:28:39.537Z,-1.07
2018-02-19T00:29:42.490Z,-1.19
2018-02-19T00:30:45.477Z,-1.38
2018-02-19T00:31:48.343Z,-1.38
2018-02-19T00:32:52.951Z,-1.33
2018-02-19T00:33:56.193Z,-1.29
2018-02-19T00:34:59.141Z,-1.27
2018-02-19T00:36:02.100Z,-1.21
2018-02-19T00:37:05.080Z,-1.32
2018-02-19T00:38:08.043Z,-1.29
2018-02-19T00:39:11.011Z,-1.26
2018-02-19T00:40:14.253Z,-1.26
2018-02-19T00:41:17.228Z,-1.36
2018-02-19T00:42:20.186Z,-1.43
2018-02-19T00:43:23.251Z,-1.41
2018-02-19T00:44:26.177Z,-1.40
2018-02-19T00:45:29.074Z,-1.28
2018-02-19T00:46:32.242Z,-1.17
2018-02-19T00:47:35.117Z,-1.14
2018-02-19T00:48:38.036Z,-1.14
2018-02-19T00:49:40.984Z,-1.10
2018-02-19T00:50:43.929Z,-1.11
2018-02-19T00:51:46.926Z,-1.13
2018-02-19T00:52:50.266Z,-1.17
2018-02-19T00:53:53.220Z,-1.12
2018-02-19T00:54:56.169Z,-1.03
2018-02-19T00:55:59.102Z,-0.89
2018-02-19T00:57:02.067Z,-0.82
2018-02-19T00:58:05.072Z,-0.88
2018-02-19T00:59:08.329Z,-1.02
2018-02-19T01:00:11.332Z,-0.87
2018-02-19T01:01:14.957Z,-0.85
2018-02-19T01:02:17.918Z,-0.72
2018-02-19T01:03:20.798Z,-0.72
2018-02-19T01:04:23.629Z,-0.75
2018-02-19T01:05:26.797Z,-0.91
2018-02-19T01:06:29.654Z,-1.12
2018-02-19T01:07:32.620Z,-1.40
2018-02-19T01:08:35.601Z,-1.44
2018-02-19T01:09:38.541Z,-1.33
2018-02-19T01:10:42.492Z,-1.24
2018-02-19T01:11:45.598Z,-1.23
2018-02-19T01:12:48.996Z,-1.24
2018-02-19T01:13:51.795Z,-1.18
2018-02-19T01:14:54.659Z,-1.22
2018-02-19T01:15:57.501Z,-1.31
2018-02-19T01:17:00.401Z,-1.21
2018-02-19T01:18:03.538Z,-1.39
2018-02-19T01:19:06.399Z,-1.36
2018-02-19T01:20:09.271Z,-1.39
2018-02-19T01:21:12.150Z,-1.28
2018-02-19T01:22:15.049Z,-1.23
2018-02-19T01:23:17.916Z,-1.13
2018-02-19T01:24:21.170Z,-1.07
2018-02-19T01:25:24.145Z,-1.03
2018-02-19T01:26:27.111Z,-0.99
2018-02-19T01:27:30.057Z,-0.99
2018-02-19T01:28:32.934Z,-0.99
2018-02-19T01:29:35.790Z,-0.99
2018-02-19T01:30:39.143Z,-0.97
2018-02-19T01:31:42.035Z,-0.90
2018-02-19T01:32:45.277Z,-0.79
2018-02-19T01:33:48.273Z,-0.75
2018-02-19T01:34:51.226Z,-0.78
2018-02-19T01:35:54.176Z,-0.83
2018-02-19T01:36:57.395Z,-0.75
2018-02-19T01:38:00.337Z,-0.71
2018-02-19T01:39:03.372Z,-0.75
2018-02-19T01:40:06.330Z,-0.97
2018-02-19T01:41:09.241Z,-1.39
2018-02-19T01:42:12.203Z,-1.55
2018-02-19T01:43:15.410Z,-1.36
2018-02-19T01:44:18.285Z,-1.17
2018-02-19T01:45:21.181Z,-1.16
2018-02-19T01:46:24.071Z,-1.23
2018-02-19T01:47:26.953Z,-1.22
2018-02-19T01:48:29.870Z,-1.14
2018-02-19T01:49:33.096Z,-1.08
2018-02-19T01:50:36.005Z,-1.05
2018-02-19T01:51:38.911Z,-0.98
2018-02-19T01:52:41.790Z,-0.97
2018-02-19T01:53:44.680Z,-0.94
2018-02-19T01:54:47.587Z,-0.96
2018-02-19T01:55:50.758Z,-0.90
2018-02-19T01:56:53.676Z,-0.90
2018-02-19T01:57:56.645Z,-0.88
2018-02-19T01:58:59.616Z,-0.83
2018-02-19T02:00:02.566Z,-0.74
2018-02-19T02:01:05.531Z,-0.70
2018-02-19T02:02:08.778Z,-0.78
2018-02-19T02:03:11.748Z,-0.82
2018-02-19T02:04:14.710Z,-0.91
2018-02-19T02:05:17.778Z,-0.87
2018-02-19T02:06:20.748Z,-0.78
2018-02-19T02:07:24.435Z,-0.82
2018-02-19T02:08:27.684Z,-0.79
2018-02-19T02:09:30.644Z,-0.73
2018-02-19T02:10:33.599Z,-0.63
2018-02-19T02:11:36.557Z,-0.57
2018-02-19T02:12:39.492Z,-0.60
2018-02-19T02:13:42.528Z,-0.49
2018-02-19T02:14:45.840Z,-0.42
2018-02-19T02:15:48.786Z,-0.31
2018-02-19T02:16:51.808Z,-0.30
2018-02-19T02:17:54.741Z,-0.35
2018-02-19T02:18:57.757Z,-0.40
2018-02-19T02:20:00.641Z,-0.48
2018-02-19T02:21:03.823Z,-0.50
2018-02-19T02:22:06.770Z,-0.55
2018-02-19T02:23:09.699Z,-0.56
2018-02-19T02:24:12.664Z,-0.48
2018-02-19T02:25:15.660Z,-0.75
2018-02-19T02:26:18.667Z,-0.74
2018-02-19T02:27:21.943Z,-0.70
2018-02-19T02:28:24.872Z,-0.72
2018-02-19T02:29:27.894Z,-0.94
2018-02-19T02:30:30.918Z,-1.19
2018-02-19T02:31:33.850Z,-1.22
2018-02-19T02:32:36.807Z,-0.98
2018-02-19T02:33:40.037Z,-0.78
2018-02-19T02:34:43.184Z,-0.77
2018-02-19T02:35:46.143Z,-0.74
2018-02-19T02:36:49.142Z,-0.64
2018-02-19T02:37:52.089Z,-0.57
2018-02-19T02:38:55.042Z,-0.57
2018-02-19T02:39:58.312Z,-0.52
2018-02-19T02:41:01.343Z,-0.60
2018-02-19T02:42:04.329Z,-0.59
2018-02-19T02:43:07.294Z,-0.51
2018-02-19T02:44:10.230Z,-0.57
2018-02-19T02:45:13.161Z,-0.52
2018-02-19T02:46:16.427Z,-0.45
2018-02-19T02:47:19.417Z,-0.41
2018-02-19T02:48:22.341Z,-0.38
2018-02-19T02:49:25.278Z,-0.37
2018-02-19T02:50:28.264Z,-0.63
2018-02-19T02:51:31.210Z,-0.57
2018-02-19T02:52:34.551Z,-0.57
2018-02-19T02:53:37.520Z,-0.57
2018-02-19T02:54:40.460Z,-0.45
2018-02-19T02:55:43.438Z,-0.50
2018-02-19T02:56:46.378Z,-0.46
2018-02-19T02:57:49.318Z,-0.45
2018-02-19T02:58:52.667Z,-0.42
2018-02-19T02:59:55.602Z,-0.52
2018-02-19T03:00:59.556Z,-0.62
2018-02-19T03:02:02.544Z,-0.71
2018-02-19T03:03:05.494Z,-0.60
2018-02-19T03:04:08.442Z,-0.54
2018-02-19T03:05:14.593Z,-0.57
2018-02-19T03:06:17.528Z,-0.57
2018-02-19T03:07:20.480Z,-0.62
2018-02-19T03:08:23.985Z,-0.60
2018-02-19T03:09:26.971Z,-0.71
2018-02-19T03:10:29.914Z,-0.80
2018-02-19T03:11:33.034Z,-0.86
2018-02-19T03:12:35.882Z,-0.84
2018-02-19T03:13:38.717Z,-0.78
2018-02-19T03:14:41.569Z,-0.80
2018-02-19T03:15:44.416Z,-0.75
2018-02-19T03:16:47.363Z,-0.75
2018-02-19T03:17:51.608Z,-0.75
2018-02-19T03:18:55.389Z,-0.75
2018-02-19T03:19:58.333Z,-0.75
2018-02-19T03:21:01.317Z,-0.66
2018-02-19T03:22:04.303Z,-0.74
2018-02-19T03:23:07.272Z,-0.81
2018-02-19T03:24:10.483Z,-0.83
2018-02-19T03:25:13.444Z,-0.85
2018-02-19T03:26:16.402Z,-0.82
2018-02-19T03:27:19.356Z,-0.79
2018-02-19T03:28:22.320Z,-0.68
2018-02-19T03:29:25.252Z,-0.57
2018-02-19T03:30:28.507Z,-0.50
2018-02-19T03:31:31.503Z,-0.53
2018-02-19T03:32:34.496Z,-0.46
2018-02-19T03:33:37.424Z,-0.51
2018-02-19T03:34:40.436Z,-0.42
2018-02-19T03:35:43.363Z,-0.37
2018-02-19T03:36:46.612Z,-0.41
2018-02-19T03:37:49.548Z,-0.33
2018-02-19T03:38:52.479Z,-0.29
2018-02-19T03:39:55.426Z,-0.37
2018-02-19T03:40:58.397Z,-0.44
2018-02-19T03:42:01.402Z,-0.49
2018-02-19T03:43:04.622Z,-0.56
2018-02-19T03:44:07.498Z,-0.61
2018-02-19T03:45:11.141Z,-0.58
2018-02-19T03:46:14.025Z,-0.66
2018-02-19T03:47:16.882Z,-0.75
2018-02-19T03:48:19.752Z,-0.75
2018-02-19T03:49:22.889Z,-0.75
2018-02-19T03:50:25.745Z,-0.75
2018-02-19T03:51:28.859Z,-0.68
2018-02-19T03:52:31.638Z,-0.61
2018-02-19T03:53:34.455Z,-0.66
2018-02-19T03:54:37.231Z,-0.71
2018-02-19T03:55:40.304Z,-0.70
2018-02-19T03:56:43.130Z,-0.70
2018-02-19T03:57:45.973Z,-0.71
2018-02-19T03:58:48.829Z,-0.66
2018-02-19T03:59:51.661Z,-0.64
2018-02-19T04:00:54.496Z,-0.65
2018-02-19T04:01:57.638Z,-0.66
2018-02-19T04:03:00.478Z,-0.62
2018-02-19T04:04:03.442Z,-0.63
2018-02-19T04:05:06.538Z,-0.59
2018-02-19T04:06:09.489Z,-0.65
2018-02-19T04:07:12.477Z,-0.59
2018-02-19T04:08:15.751Z,-0.58
2018-02-19T04:09:18.725Z,-0.57
2018-02-19T04:10:21.575Z,-0.64
2018-02-19T04:11:24.503Z,-0.69
2018-02-19T04:12:27.410Z,-0.71
2018-02-19T04:13:30.266Z,-0.69
2018-02-19T04:14:33.510Z,-0.68
2018-02-19T04:15:36.661Z,-0.68
2018-02-19T04:16:39.525Z,-0.60
2018-02-19T04:17:42.423Z,-0.60
2018-02-19T04:18:45.381Z,-0.60
2018-02-19T04:19:48.351Z,-0.64
2018-02-19T04:20:51.640Z,-0.68
2018-02-19T04:21:54.580Z,-0.64
2018-02-19T04:22:57.525Z,-0.62
2018-02-19T04:24:00.493Z,-0.60
2018-02-19T04:25:03.451Z,-0.58
2018-02-19T04:26:06.401Z,-0.58
2018-02-19T04:27:09.682Z,-0.56
2018-02-19T04:28:12.592Z,-0.52
2018-02-19T04:29:15.562Z,-0.51
2018-02-19T04:30:18.508Z,-0.53
2018-02-19T04:31:21.465Z,-0.46
2018-02-19T04:32:24.397Z,-0.44
2018-02-19T04:33:27.341Z,-0.43
2018-02-19T04:34:30.299Z,-0.41
2018-02-19T04:35:33.261Z,-0.47
2018-02-19T04:36:36.214Z,-0.50
2018-02-19T04:37:39.184Z,-0.46
2018-02-19T04:38:42.412Z,-0.39
2018-02-19T04:39:45.370Z,-0.35
2018-02-19T04:40:48.312Z,-0.31
2018-02-19T04:41:51.242Z,-0.23
2018-02-19T04:42:54.416Z,-0.19
2018-02-19T04:43:57.462Z,-0.25
2018-02-19T04:45:00.861Z,-0.32
2018-02-19T04:46:03.982Z,-0.40
2018-02-19T04:47:07.057Z,-0.43
2018-02-19T04:48:10.143Z,-0.52
2018-02-19T04:49:13.659Z,-0.55
2018-02-19T04:50:16.601Z,-0.57
2018-02-19T04:51:19.840Z,-0.52
2018-02-19T04:52:22.772Z,-0.45
2018-02-19T04:53:25.728Z,-0.39
2018-02-19T04:54:28.675Z,-0.37
2018-02-19T04:55:31.614Z,-0.37
2018-02-19T04:56:34.565Z,-0.34
2018-02-19T04:57:37.787Z,-0.27
2018-02-19T04:58:40.720Z,-0.25
2018-02-19T04:59:43.672Z,-0.31
2018-02-19T05:00:46.778Z,-0.40
2018-02-19T05:01:50.142Z,-0.42
2018-02-19T05:02:53.096Z,-0.41
2018-02-19T05:03:56.350Z,-0.32
2018-02-19T05:04:59.433Z,-0.24
2018-02-19T05:06:02.354Z,-0.22
2018-02-19T05:07:05.471Z,-0.22
2018-02-19T05:08:08.420Z,-0.18
2018-02-19T05:09:11.370Z,-0.13
2018-02-19T05:10:14.781Z,-0.19
2018-02-19T05:11:18.678Z,-0.22
2018-02-19T05:12:21.633Z,-0.20
2018-02-19T05:13:24.584Z,-0.27
2018-02-19T05:14:27.607Z,-0.24
2018-02-19T05:15:30.545Z,-0.21
2018-02-19T05:16:33.789Z,-0.31
2018-02-19T05:17:36.794Z,-0.39
2018-02-19T05:18:39.736Z,-0.45
2018-02-19T05:19:42.623Z,-0.49
2018-02-19T05:20:45.573Z,-0.53
2018-02-19T05:21:48.449Z,-0.48
2018-02-19T05:22:51.381Z,-0.38
2018-02-19T05:23:54.290Z,-0.33
2018-02-19T05:24:57.174Z,-0.32
2018-02-19T05:26:00.123Z,-0.31
2018-02-19T05:27:03.030Z,-0.51
2018-02-19T05:28:06.201Z,-0.54
2018-02-19T05:29:09.071Z,-0.63
2018-02-19T05:30:12.591Z,-0.61
2018-02-19T05:31:15.522Z,-0.61
2018-02-19T05:32:18.494Z,-0.63
2018-02-19T05:33:21.496Z,-0.60
2018-02-19T05:34:24.702Z,-0.53
2018-02-19T05:35:27.829Z,-0.53
2018-02-19T05:36:30.785Z,-0.59
2018-02-19T05:37:33.814Z,-0.60
2018-02-19T05:38:36.766Z,-0.61
2018-02-19T05:39:39.708Z,-0.61
2018-02-19T05:40:42.909Z,-0.59
2018-02-19T05:41:45.843Z,-0.54
2018-02-19T05:42:48.802Z,-0.53
2018-02-19T05:43:51.789Z,-0.55
2018-02-19T05:44:54.694Z,-0.57
2018-02-19T05:45:57.653Z,-0.59
2018-02-19T05:47:01.045Z,-0.55
2018-02-19T05:48:04.024Z,-0.49
2018-02-19T05:49:06.961Z,-0.52
2018-02-19T05:50:09.993Z,-0.56
2018-02-19T05:51:12.968Z,-0.58
2018-02-19T05:52:15.892Z,-0.58
2018-02-19T05:53:19.153Z,-0.58
2018-02-19T05:54:22.111Z,-0.48
2018-02-19T05:55:25.049Z,-0.37
2018-02-19T05:56:29.004Z,-0.32
2018-02-19T05:57:31.994Z,-0.28
2018-02-19T05:58:34.928Z,-0.31
2018-02-19T05:59:38.313Z,-0.19
2018-02-19T06:00:41.232Z,-0.06
2018-02-19T06:01:44.431Z,-0.01
2018-02-19T06:02:47.383Z,0.00
2018-02-19T06:03:50.995Z,-0.11
2018-02-19T06:04:54.010Z,-0.13
2018-02-19T06:05:57.353Z,-0.18
2018-02-19T06:07:00.333Z,-0.24
2018-02-19T06:08:03.306Z,-0.33
2018-02-19T06:09:06.266Z,-0.36
2018-02-19T06:10:09.214Z,-0.25
2018-02-19T06:11:12.183Z,-0.21
2018-02-19T06:12:15.463Z,-0.09
2018-02-19T06:13:18.401Z,-0.05
2018-02-19T06:14:21.307Z,-0.01
2018-02-19T06:15:24.199Z,0.04
2018-02-19T06:16:27.137Z,-0.03
2018-02-19T06:17:30.050Z,-0.12
2018-02-19T06:18:33.279Z,-0.25
2018-02-19T06:19:36.261Z,-0.38
2018-02-19T06:20:39.231Z,-0.43
2018-02-19T06:21:42.199Z,-0.55
2018-02-19T06:22:45.454Z,-0.63
2018-02-19T06:23:48.435Z,-0.57
2018-02-19T06:24:51.787Z,-0.60
2018-02-19T06:25:54.740Z,-0.58
2018-02-19T06:26:57.688Z,-0.57
2018-02-19T06:28:00.716Z,-0.59
2018-02-19T06:29:03.671Z,-0.51
2018-02-19T06:30:06.695Z,-0.43
2018-02-19T06:31:09.661Z,-0.41
2018-02-19T06:32:12.674Z,-0.29
2018-02-19T06:33:15.628Z,-0.25
2018-02-19T06:34:18.594Z,-0.23
2018-02-19T06:35:21.536Z,-0.21
2018-02-19T06:36:25.045Z,-0.20
2018-02-19T06:37:28.010Z,-0.19
2018-02-19T06:38:30.924Z,-0.18
2018-02-19T06:39:33.841Z,-0.15
2018-02-19T06:40:36.742Z,-0.11
2018-02-19T06:41:39.654Z,-0.03
2018-02-19T06:42:42.844Z,-0.02
2018-02-19T06:43:45.891Z,-0.05
2018-02-19T06:44:48.858Z,-0.07
2018-02-19T06:45:51.822Z,-0.14
2018-02-19T06:46:54.799Z,-0.10
2018-02-19T06:47:57.747Z,-0.08
2018-02-19T06:49:01.102Z,-0.07
2018-02-19T06:50:04.056Z,-0.15
2018-02-19T06:51:07.021Z,-0.19
2018-02-19T06:52:09.972Z,-0.20
2018-02-19T06:53:12.928Z,-0.17
2018-02-19T06:54:15.916Z,-0.16
2018-02-19T06:55:19.316Z,-0.08
2018-02-19T06:56:22.373Z,0.00
2018-02-19T06:57:25.270Z,0.02
2018-02-19T06:58:29.139Z,-0.01
2018-02-19T06:59:32.119Z,-0.09
2018-02-19T07:00:35.030Z,-0.07
2018-02-19T07:01:38.341Z,-0.04
2018-02-19T07:02:41.366Z,0.00
2018-02-19T07:03:44.471Z,0.05
2018-02-19T07:04:47.435Z,0.08
2018-02-19T07:05:50.382Z,0.09
2018-02-19T07:06:53.340Z,0.02
2018-02-19T07:07:56.757Z,-0.07
2018-02-19T07:08:59.741Z,-0.07
2018-02-19T07:10:02.761Z,0.01
2018-02-19T07:11:05.792Z,0.15
2018-02-19T07:12:09.125Z,0.15
2018-02-19T07:13:12.079Z,0.13
2018-02-19T07:14:15.420Z,0.08
2018-02-19T07:15:18.844Z,0.08
2018-02-19T07:16:22.386Z,0.11
2018-02-19T07:17:25.293Z,0.21
2018-02-19T07:18:28.202Z,0.21
2018-02-19T07:19:31.299Z,0.21
2018-02-19T07:20:34.710Z,0.17
2018-02-19T07:21:37.713Z,0.13
2018-02-19T07:22:40.716Z,0.12
2018-02-19T07:23:43.676Z,0.10
2018-02-19T07:24:46.672Z,0.03
2018-02-19T07:25:49.643Z,0.05
2018-02-19T07:26:53.190Z,0.18
2018-02-19T07:27:56.309Z,0.13
2018-02-19T07:28:59.381Z,0.21
2018-02-19T07:30:02.461Z,0.32
2018-02-19T07:31:05.600Z,0.45
2018-02-19T07:32:08.544Z,0.52
2018-02-19T07:33:11.789Z,0.57
2018-02-19T07:34:14.761Z,0.65
2018-02-19T07:35:17.730Z,0.71
2018-02-19T07:36:20.756Z,0.75
2018-02-19T07:37:23.741Z,0.64
2018-02-19T07:38:26.705Z,0.57
2018-02-19T07:39:29.944Z,0.61
2018-02-19T07:40:33.271Z,0.62
2018-02-19T07:41:36.282Z,0.49
2018-02-19T07:42:39.260Z,0.31
2018-02-19T07:43:42.141Z,0.25
2018-02-19T07:44:45.051Z,0.33
2018-02-19T07:45:48.237Z,0.44
2018-02-19T07:46:51.119Z,0.60
2018-02-19T07:47:54.051Z,0.66
2018-02-19T07:48:56.962Z,0.69
2018-02-19T07:49:59.871Z,0.78
2018-02-19T07:51:02.878Z,0.67
2018-02-19T07:52:06.167Z,0.69
2018-02-19T07:53:09.585Z,0.77
2018-02-19T07:54:12.555Z,0.60
2018-02-19T07:55:15.568Z,0.78
2018-02-19T07:56:18.621Z,0.96
2018-02-19T07:57:21.605Z,1.06
2018-02-19T07:58:24.896Z,1.12
2018-02-19T07:59:27.957Z,1.13
2018-02-19T08:00:30.958Z,1.18
2018-02-19T08:01:33.920Z,1.21
2018-02-19T08:02:37.429Z,1.28
2018-02-19T08:03:40.438Z,1.19
2018-02-19T08:04:43.568Z,1.18
2018-02-19T08:05:46.467Z,1.14
2018-02-19T08:06:49.566Z,1.15
2018-02-19T08:07:52.420Z,1.24
2018-02-19T08:08:55.368Z,1.30
2018-02-19T08:09:58.651Z,1.09
2018-02-19T08:11:01.931Z,0.91
2018-02-19T08:12:04.921Z,0.97
2018-02-19T08:13:07.850Z,0.99
2018-02-19T08:14:10.798Z,0.97
2018-02-19T08:15:13.768Z,0.91
2018-02-19T08:16:16.698Z,0.87
2018-02-19T08:17:20.049Z,0.83
2018-02-19T08:18:23.036Z,0.83
2018-02-19T08:19:25.995Z,0.82
2018-02-19T08:20:28.989Z,0.81
2018-02-19T08:21:32.281Z,0.86
2018-02-19T08:22:35.217Z,0.85
2018-02-19T08:23:38.592Z,0.81
2018-02-19T08:24:41.546Z,0.74
2018-02-19T08:25:44.509Z,0.77
2018-02-19T08:26:47.437Z,0.77
2018-02-19T08:27:50.479Z,0.76
2018-02-19T08:28:53.499Z,0.85
2018-02-19T08:29:57.709Z,0.94
2018-02-19T08:31:00.702Z,0.91
2018-02-19T08:32:04.446Z,0.63
2018-02-19T08:33:07.517Z,0.58
2018-02-19T08:34:10.511Z,0.64
2018-02-19T08:35:13.506Z,0.65
2018-02-19T08:36:16.877Z,0.59
2018-02-19T08:37:19.901Z,0.57
2018-02-19T08:38:22.965Z,0.68
2018-02-19T08:39:26.045Z,0.60
2018-02-19T08:40:29.045Z,0.64
2018-02-19T08:41:32.014Z,0.63
2018-02-19T08:42:35.248Z,0.63
2018-02-19T08:43:38.129Z,0.73
2018-02-19T08:44:41.039Z,0.80
2018-02-19T08:45:44.007Z,0.84
2018-02-19T08:46:46.946Z,0.94
2018-02-19T08:47:49.888Z,1.03
2018-02-19T08:48:53.342Z,1.18
2018-02-19T08:49:56.373Z,0.92
2018-02-19T08:50:59.372Z,0.85
2018-02-19T08:52:02.315Z,0.98
2018-02-19T08:53:05.264Z,1.23
2018-02-19T08:54:08.170Z,1.60
2018-02-19T08:55:11.503Z,1.68
2018-02-19T08:56:14.409Z,1.74
2018-02-19T08:57:17.332Z,1.90
2018-02-19T08:58:20.206Z,1.82
2018-02-19T08:59:23.116Z,1.69
2018-02-19T09:00:26.143Z,1.67
2018-02-19T09:01:29.574Z,1.47
2018-02-19T09:02:32.539Z,1.43
2018-02-19T09:03:35.501Z,1.60
2018-02-19T09:04:38.468Z,1.75
2018-02-19T09:05:41.408Z,1.84
2018-02-19T09:06:44.306Z,1.64
2018-02-19T09:07:49.080Z,1.47
2018-02-19T09:08:52.352Z,1.56
2018-02-19T09:09:55.307Z,1.60
2018-02-19T09:10:58.498Z,1.54
2018-02-19T09:12:01.359Z,1.61
2018-02-19T09:13:04.383Z,1.78
2018-02-19T09:14:07.799Z,1.76
2018-02-19T09:15:10.705Z,1.82
2018-02-19T09:16:13.678Z,1.69
2018-02-19T09:17:16.762Z,1.99
2018-02-19T09:18:20.312Z,1.92
2018-02-19T09:19:23.257Z,1.83
2018-02-19T09:20:26.653Z,1.81
2018-02-19T09:21:29.639Z,1.82
2018-02-19T09:22:32.616Z,1.82
2018-02-19T09:23:36.194Z,1.71
2018-02-19T09:24:39.144Z,1.75
2018-02-19T09:25:42.123Z,1.83
2018-02-19T09:26:45.529Z,1.82
2018-02-19T09:27:48.485Z,1.71
2018-02-19T09:28:51.516Z,1.74
2018-02-19T09:29:54.372Z,1.80
2018-02-19T09:30:57.321Z,1.67
2018-02-19T09:32:00.444Z,1.58
2018-02-19T09:33:03.722Z,1.06
2018-02-19T09:34:06.672Z,1.10
2018-02-19T09:35:10.214Z,1.15
2018-02-19T09:36:13.107Z,1.27
2018-02-19T09:37:16.035Z,1.10
2018-02-19T09:38:18.914Z,1.13
2018-02-19T09:39:22.273Z,1.18
2018-02-19T09:40:25.251Z,1.13
2018-02-19T09:41:28.233Z,1.14
2018-02-19T09:42:31.170Z,0.91
2018-02-19T09:43:34.109Z,0.86
2018-02-19T09:44:37.072Z,0.94
2018-02-19T09:45:40.417Z,1.18
2018-02-19T09:46:43.448Z,1.34
2018-02-19T09:47:46.430Z,1.59
2018-02-19T09:48:49.381Z,1.63
2018-02-19T09:49:52.323Z,1.86
2018-02-19T09:50:55.343Z,2.32
2018-02-19T09:51:58.705Z,2.42
2018-02-19T09:53:01.682Z,2.32
2018-02-19T09:54:04.657Z,2.84
2018-02-19T09:55:07.661Z,2.83
2018-02-19T09:56:10.616Z,2.59
2018-02-19T09:57:13.586Z,2.51
2018-02-19T09:58:17.083Z,2.44
2018-02-19T09:59:20.078Z,2.35
2018-02-19T10:00:23.034Z,2.36
2018-02-19T10:01:26.052Z,2.42
2018-02-19T10:02:28.943Z,2.50
2018-02-19T10:03:31.906Z,2.76
2018-02-19T10:04:35.302Z,2.89
2018-02-19T10:05:38.618Z,2.51
2018-02-19T10:06:42.006Z,2.47
2018-02-19T10:07:44.980Z,2.68
2018-02-19T10:08:48.007Z,3.01
2018-02-19T10:09:50.973Z,3.11
2018-02-19T10:10:54.469Z,3.23
2018-02-19T10:11:57.427Z,3.50
2018-02-19T10:13:00.775Z,3.31
2018-02-19T10:14:03.722Z,2.90
2018-02-19T10:16:08.892Z,2.42
2018-02-19T10:17:11.926Z,2.15
2018-02-19T10:18:14.907Z,2.04
2018-02-19T10:19:17.912Z,1.78
2018-02-19T10:20:20.987Z,1.74
2018-02-19T10:21:23.966Z,2.04
2018-02-19T10:22:27.432Z,2.18
2018-02-19T10:23:30.376Z,1.99
2018-02-19T10:24:33.398Z,1.97
2018-02-19T10:25:36.367Z,2.04
2018-02-19T10:26:39.368Z,2.05
2018-02-19T10:27:42.305Z,2.17
2018-02-19T10:28:45.766Z,2.37
2018-02-19T10:29:48.802Z,2.50
2018-02-19T10:30:51.760Z,2.48
2018-02-19T10:31:54.747Z,2.37
2018-02-19T10:32:57.989Z,2.33
2018-02-19T10:34:00.975Z,2.19
2018-02-19T10:35:04.728Z,2.20
2018-02-19T10:36:07.739Z,2.42
2018-02-19T10:37:10.737Z,2.38
2018-02-19T10:38:13.677Z,2.03
2018-02-19T10:39:16.687Z,2.20
2018-02-19T10:40:19.656Z,2.79
2018-02-19T10:41:22.637Z,2.66
2018-02-19T10:42:25.656Z,2.42
2018-02-19T10:43:28.652Z,2.66
2018-02-19T10:44:31.635Z,2.91
2018-02-19T10:45:34.679Z,2.93
2018-02-19T10:46:38.686Z,2.88
2018-02-19T10:47:41.632Z,2.99
2018-02-19T10:48:44.671Z,3.38
2018-02-19T10:49:47.641Z,3.55
2018-02-19T10:50:50.579Z,3.64
2018-02-19T10:51:53.650Z,4.00
2018-02-19T10:52:59.537Z,4.34
2018-02-19T10:54:02.647Z,4.48
2018-02-19T10:55:05.691Z,4.11
2018-02-19T10:56:08.538Z,3.88
2018-02-19T10:57:11.509Z,3.51
2018-02-19T10:58:14.407Z,3.64
2018-02-19T10:59:17.771Z,3.48
2018-02-19T11:00:24.843Z,3.63
2018-02-19T11:01:28.277Z,3.77
2018-02-19T11:02:31.258Z,4.07
2018-02-19T11:03:35.066Z,4.06
2018-02-19T11:04:40.664Z,3.88
2018-02-19T11:05:43.858Z,3.82
2018-02-19T11:06:46.916Z,3.58
2018-02-19T11:07:49.949Z,3.55
2018-02-19T11:08:52.918Z,3.39
2018-02-19T11:09:55.919Z,3.34
2018-02-19T11:10:59.357Z,3.31
2018-02-19T11:12:02.355Z,3.01
2018-02-19T11:13:05.316Z,3.15
2018-02-19T11:14:08.290Z,3.18
2018-02-19T11:15:11.261Z,3.17
2018-02-19T11:16:14.228Z,3.19
2018-02-19T11:17:18.119Z,2.93
2018-02-19T11:18:21.245Z,2.50
2018-02-19T11:19:24.284Z,2.63
2018-02-19T11:20:27.756Z,2.67
2018-02-19T11:21:30.757Z,2.68
2018-02-19T11:22:34.166Z,2.54
2018-02-19T11:23:37.653Z,2.64
2018-02-19T11:24:40.902Z,2.91
2018-02-19T11:25:43.883Z,3.39
2018-02-19T11:26:46.880Z,3.89
2018-02-19T11:27:49.883Z,3.96
2018-02-19T11:28:52.857Z,4.09
2018-02-19T11:29:55.799Z,3.97
2018-02-19T11:30:58.789Z,3.72
2018-02-19T11:32:01.805Z,3.96
2018-02-19T11:33:04.756Z,4.40
2018-02-19T11:34:07.700Z,4.26
2018-02-19T11:35:11.046Z,3.57
2018-02-19T11:36:14.057Z,3.76
2018-02-19T11:37:17.037Z,3.56
2018-02-19T11:38:19.976Z,3.43
2018-02-19T11:39:22.923Z,3.31
2018-02-19T11:40:26.429Z,3.68
2018-02-19T11:41:29.477Z,3.51
2018-02-19T11:42:32.471Z,3.66
2018-02-19T11:43:35.428Z,3.75
2018-02-19T11:44:38.378Z,3.81
2018-02-19T11:45:41.386Z,4.19
2018-02-19T11:46:44.428Z,4.00
2018-02-19T11:47:47.388Z,3.95
2018-02-19T11:48:50.385Z,3.73
2018-02-19T11:49:54.382Z,3.62
2018-02-19T11:50:57.673Z,3.77
2018-02-19T11:52:00.692Z,3.74
2018-02-19T11:53:03.675Z,3.33
2018-02-19T11:54:06.713Z,2.97
2018-02-19T11:55:09.698Z,2.86
2018-02-19T11:56:12.650Z,3.08
2018-02-19T11:57:15.954Z,3.11
2018-02-19T11:58:18.894Z,2.88
2018-02-19T11:59:21.978Z,2.85
2018-02-19T12:00:25.010Z,2.93
2018-02-19T12:01:28.033Z,3.12
2018-02-19T12:02:30.981Z,3.30
2018-02-19T12:03:34.370Z,3.06
2018-02-19T12:04:37.310Z,2.77
2018-02-19T12:05:40.311Z,2.70
2018-02-19T12:06:43.346Z,2.75
2018-02-19T12:07:46.318Z,2.76
2018-02-19T12:08:49.300Z,2.75
2018-02-19T12:09:52.662Z,3.05
2018-02-19T12:10:55.649Z,3.30
2018-02-19T12:11:58.617Z,3.51
2018-02-19T12:13:01.619Z,3.42
2018-02-19T12:14:04.599Z,3.26
2018-02-19T12:15:07.751Z,3.38
2018-02-19T12:16:11.276Z,3.64
2018-02-19T12:17:14.372Z,3.70
2018-02-19T12:18:17.625Z,3.93
2018-02-19T12:19:20.818Z,4.24
2018-02-19T12:20:23.840Z,4.19
2018-02-19T12:21:27.009Z,3.62
2018-02-19T12:22:30.351Z,3.45
2018-02-19T12:23:33.351Z,3.55
2018-02-19T12:24:36.479Z,3.71
2018-02-19T12:25:39.623Z,3.73
2018-02-19T12:26:42.758Z,3.84
2018-02-19T12:27:46.106Z,4.02
2018-02-19T12:28:50.857Z,4.06
2018-02-19T12:29:54.332Z,4.15
2018-02-19T12:30:57.478Z,4.29
2018-02-19T12:32:00.330Z,4.54
2018-02-19T12:33:03.238Z,4.50
2018-02-19T12:34:06.149Z,4.63
2018-02-19T12:35:09.430Z,4.87
2018-02-19T12:36:12.877Z,5.05
2018-02-19T12:37:16.272Z,5.24
2018-02-19T12:38:19.421Z,5.64
2018-02-19T12:39:22.503Z,5.92
2018-02-19T12:40:25.652Z,5.59
2018-02-19T12:41:29.089Z,5.68
2018-02-19T12:42:32.147Z,5.61
2018-02-19T12:43:35.173Z,5.33
2018-02-19T12:44:38.349Z,5.33
2018-02-19T12:45:41.467Z,5.40
2018-02-19T12:46:44.623Z,5.46
2018-02-19T12:47:48.082Z,5.55
2018-02-19T12:48:51.169Z,5.89
2018-02-19T12:49:54.137Z,5.71
2018-02-19T12:50:57.106Z,5.16
2018-02-19T12:52:00.254Z,5.18
2018-02-19T12:53:03.230Z,5.90
2018-02-19T12:54:07.639Z,6.05
2018-02-19T12:55:11.335Z,5.55
2018-02-19T12:56:14.486Z,5.24
2018-02-19T12:57:17.858Z,4.76
2018-02-19T12:58:21.170Z,4.58
2018-02-19T12:59:24.130Z,4.36
2018-02-19T13:00:27.644Z,4.66
2018-02-19T13:01:30.778Z,4.84
2018-02-19T13:02:33.882Z,5.60
2018-02-19T13:03:36.849Z,5.95
2018-02-19T13:04:39.827Z,5.89
2018-02-19T13:05:43.064Z,5.62
2018-02-19T13:06:46.565Z,5.39
2018-02-19T13:07:49.810Z,5.50
2018-02-19T13:08:52.845Z,6.06
2018-02-19T13:09:55.848Z,6.43
2018-02-19T13:10:58.857Z,6.58
2018-02-19T13:12:01.751Z,6.08
2018-02-19T13:13:05.055Z,5.59
2018-02-19T13:14:08.306Z,5.64
2018-02-19T13:15:11.456Z,6.11
2018-02-19T13:16:14.815Z,5.81
2018-02-19T13:17:17.927Z,5.70
2018-02-19T13:18:20.949Z,5.51
2018-02-19T13:19:24.507Z,5.23
2018-02-19T13:20:27.537Z,5.36
2018-02-19T13:21:30.618Z,5.32
2018-02-19T13:22:35.442Z,5.40
2018-02-19T13:23:38.857Z,5.22
2018-02-19T13:24:41.888Z,5.27
2018-02-19T13:25:44.948Z,5.75
2018-02-19T13:26:48.080Z,6.09
2018-02-19T13:27:51.296Z,6.14
2018-02-19T13:28:54.392Z,6.37
2018-02-19T13:29:57.489Z,6.09
2018-02-19T13:31:01.238Z,6.61
2018-02-19T13:32:04.257Z,7.39
2018-02-19T13:33:07.688Z,6.75
2018-02-19T13:34:12.006Z,6.07
2018-02-19T13:35:15.111Z,6.32
2018-02-19T13:36:18.283Z,6.82
2018-02-19T13:37:22.966Z,7.49
2018-02-19T13:38:27.080Z,7.93
2018-02-19T13:39:31.211Z,7.27
2018-02-19T13:40:34.185Z,6.35
2018-02-19T13:41:37.249Z,5.59
2018-02-19T13:42:41.310Z,5.74
2018-02-19T13:43:46.536Z,5.61
2018-02-19T13:44:52.459Z,5.60
2018-02-19T13:45:55.722Z,5.40
2018-02-19T13:46:59.588Z,5.53